createdAt,value
2022-10-22T00:16:00.225Z,97955.16
2022-10-22T00:36:02.947Z,97944.97
2022-10-22T00:56:05.530Z,97939.12
2022-10-22T01:16:08.573Z,97917.69
2022-10-22T01:36:11.067Z,97928.56
2022-10-22T01:56:13.750Z,97931.28
2022-10-22T02:16:16.462Z,97903.94
2022-10-22T02:36:18.992Z,97898.00
2022-10-22T02:56:21.578Z,97898.81
2022-10-22T03:16:24.293Z,97889.09
2022-10-22T03:36:26.753Z,97935.75
2022-10-22T03:56:29.523Z,97915.59
2022-10-22T04:16:33.882Z,97884.56
2022-10-22T04:36:36.491Z,97904.37
2022-10-22T04:56:39.240Z,97895.06
2022-10-22T05:16:41.818Z,97869.53
2022-10-22T05:36:44.628Z,97842.09
2022-10-22T05:56:47.211Z,97914.16
2022-10-22T06:16:49.877Z,97893.00
2022-10-22T06:36:53.394Z,97893.34
2022-10-22T06:56:55.954Z,97950.19
2022-10-22T07:16:58.595Z,97952.72
2022-10-22T07:37:01.885Z,97957.97
2022-10-22T07:57:04.697Z,97952.97
2022-10-22T08:17:07.142Z,97932.78
2022-10-22T08:37:09.757Z,97952.00
2022-10-22T08:57:12.295Z,97946.22
2022-10-22T09:17:15.326Z,97983.31
2022-10-22T09:37:17.778Z,97971.00
2022-10-22T09:57:22.676Z,97980.09
2022-10-22T10:17:25.397Z,97980.81
2022-10-22T10:37:27.908Z,97990.00
2022-10-22T10:57:30.613Z,97988.09
2022-10-22T11:17:33.311Z,97971.00
2022-10-22T11:37:36.069Z,97969.47
2022-10-22T11:57:41.850Z,97939.38
2022-10-22T12:17:44.779Z,97941.03
2022-10-22T12:37:47.549Z,97928.59
2022-10-22T12:57:50.151Z,97921.75
2022-10-22T13:17:52.627Z,97919.00
2022-10-22T13:37:55.371Z,97918.41
2022-10-22T13:57:58.000Z,97924.62
2022-10-22T14:18:00.630Z,97929.00
2022-10-22T14:38:03.304Z,97928.25
2022-10-22T14:58:06.017Z,97952.47
2022-10-22T15:18:08.725Z,97958.44
2022-10-22T15:38:11.233Z,97969.47
2022-10-22T15:58:13.902Z,97980.84
2022-10-22T16:18:16.339Z,97993.97
2022-10-22T16:38:20.173Z,98006.88
2022-10-22T16:58:22.676Z,98024.81
2022-10-22T17:18:25.350Z,98047.09
2022-10-22T17:38:28.338Z,98080.50
2022-10-22T17:58:31.285Z,98081.69
2022-10-22T18:18:33.917Z,98089.94
2022-10-22T18:38:36.660Z,98093.22
2022-10-22T18:58:39.655Z,98086.00
2022-10-22T19:18:43.355Z,98118.41
2022-10-22T19:38:46.149Z,98147.53
2022-10-22T19:58:48.910Z,98173.41
2022-10-22T20:18:51.534Z,98195.78
2022-10-22T20:38:54.185Z,98199.06
2022-10-22T20:59:05.455Z,98225.37
2022-10-22T21:19:08.108Z,98224.13
2022-10-22T21:39:10.796Z,98245.16
2022-10-22T21:59:13.452Z,98246.56
2022-10-22T22:19:16.109Z,98258.38
2022-10-22T22:39:18.707Z,98259.69
2022-10-22T22:59:21.422Z,98271.37
2022-10-22T23:19:24.207Z,98299.59
2022-10-22T23:39:26.729Z,98300.44
2022-10-22T23:59:29.459Z,98328.41
